createdAt,value
2018-09-30T00:01:36.843Z,99747.19
2018-09-30T00:04:05.402Z,99745.62
2018-09-30T00:06:33.965Z,99743.59
2018-09-30T00:09:02.508Z,99741.47
2018-09-30T00:11:31.101Z,99749.10
2018-09-30T00:13:59.685Z,99740.86
2018-09-30T00:16:28.262Z,99739.20
2018-09-30T00:18:56.776Z,99743.84
2018-09-30T00:21:25.369Z,99736.22
2018-09-30T00:23:59.046Z,99743.88
2018-09-30T00:26:32.895Z,99739.11
2018-09-30T00:29:01.433Z,99739.23
2018-09-30T00:31:30.024Z,99740.70
2018-09-30T00:34:03.845Z,99732.27
2018-09-30T00:36:32.444Z,99730.50
2018-09-30T00:39:01.307Z,99729.73
2018-09-30T00:41:29.862Z,99730.03
2018-09-30T00:43:58.429Z,99730.84
2018-09-30T00:46:27.008Z,99733.34
2018-09-30T00:48:55.591Z,99727.20
2018-09-30T00:51:24.164Z,99722.00
2018-09-30T00:53:52.732Z,99713.48
2018-09-30T00:56:21.609Z,99719.87
2018-09-30T00:58:50.201Z,99720.47
2018-09-30T01:01:18.771Z,99724.84
2018-09-30T01:03:47.370Z,99718.80
2018-09-30T01:06:15.920Z,99715.25
2018-09-30T01:08:44.505Z,99713.07
2018-09-30T01:11:13.061Z,99709.45
2018-09-30T01:13:41.649Z,99709.17
2018-09-30T01:16:10.498Z,99711.46
2018-09-30T01:18:39.082Z,99709.73
2018-09-30T01:21:08.076Z,99713.08
2018-09-30T01:23:36.993Z,99709.46
2018-09-30T01:26:05.572Z,99705.73
2018-09-30T01:28:34.365Z,99700.45
2018-09-30T01:31:02.920Z,99697.28
2018-09-30T01:33:31.550Z,99698.08
2018-09-30T01:36:00.114Z,99698.86
2018-09-30T01:38:28.777Z,99695.19
2018-09-30T01:40:57.323Z,99686.13
2018-09-30T01:43:25.905Z,99687.27
2018-09-30T01:45:54.473Z,99686.98
2018-09-30T01:48:23.037Z,99683.44
2018-09-30T01:50:51.587Z,99681.28
2018-09-30T01:53:20.468Z,99679.19
2018-09-30T01:55:49.004Z,99685.31
2018-09-30T01:58:17.844Z,99674.83
2018-09-30T02:00:46.373Z,99681.59
2018-09-30T02:03:14.936Z,99676.78
2018-09-30T02:05:43.486Z,99679.66
2018-09-30T02:08:12.102Z,99675.73
2018-09-30T02:10:40.654Z,99686.36
2018-09-30T02:13:09.233Z,99683.80
2018-09-30T02:15:37.781Z,99673.98
2018-09-30T02:18:06.405Z,99667.18
2018-09-30T02:20:34.962Z,99666.61
2018-09-30T02:23:03.497Z,99665.45
2018-09-30T02:25:32.033Z,99657.79
2018-09-30T02:28:00.581Z,99658.22
2018-09-30T02:30:29.127Z,99659.69
2018-09-30T02:32:57.651Z,99650.83
2018-09-30T02:35:26.195Z,99651.59
2018-09-30T02:37:55.006Z,99650.80
2018-09-30T02:40:23.565Z,99647.59
2018-09-30T02:42:52.092Z,99649.19
2018-09-30T02:45:20.645Z,99649.81
2018-09-30T02:47:49.173Z,99646.66
2018-09-30T02:50:17.797Z,99648.88
2018-09-30T02:52:46.393Z,99636.35
2018-09-30T02:55:14.956Z,99641.81
2018-09-30T02:57:43.472Z,99641.34
2018-09-30T03:00:12.085Z,99634.22
2018-09-30T03:02:40.609Z,99634.72
2018-09-30T03:05:09.144Z,99635.94
2018-09-30T03:07:43.020Z,99635.26
2018-09-30T03:10:11.578Z,99630.48
2018-09-30T03:12:40.093Z,99630.53
2018-09-30T03:15:08.672Z,99636.02
2018-09-30T03:17:37.200Z,99633.30
2018-09-30T03:20:05.781Z,99620.52
2018-09-30T03:22:34.380Z,99617.45
2018-09-30T03:25:02.948Z,99615.12
2018-09-30T03:27:31.464Z,99613.61
2018-09-30T03:30:00.015Z,99600.42
2018-09-30T03:32:28.538Z,99599.33
2018-09-30T03:34:57.093Z,99593.88
2018-09-30T03:37:25.612Z,99602.05
2018-09-30T03:39:54.169Z,99598.56
2018-09-30T03:42:22.686Z,99598.86
2018-09-30T03:44:51.248Z,99597.64
2018-09-30T03:47:19.761Z,99600.98
2018-09-30T03:49:48.329Z,99595.58
2018-09-30T03:52:16.855Z,99596.69
2018-09-30T03:54:45.370Z,99590.53
2018-09-30T03:57:13.925Z,99592.56
2018-09-30T03:59:42.440Z,99599.88
2018-09-30T04:02:11.022Z,99596.84
2018-09-30T04:04:39.572Z,99598.21
2018-09-30T04:07:08.256Z,99596.84
2018-09-30T04:09:36.860Z,99588.64
2018-09-30T04:12:05.350Z,99587.08
2018-09-30T04:14:33.926Z,99592.19
2018-09-30T04:17:02.571Z,99583.10
2018-09-30T04:19:31.369Z,99592.53
2018-09-30T04:21:59.928Z,99582.23
2018-09-30T04:24:28.460Z,99579.54
2018-09-30T04:26:57.013Z,99580.55
2018-09-30T04:29:25.533Z,99573.89
2018-09-30T04:31:54.105Z,99579.52
2018-09-30T04:34:22.637Z,99579.89
2018-09-30T04:36:51.193Z,99579.93
2018-09-30T04:39:19.704Z,99584.28
2018-09-30T04:41:48.257Z,99581.37
2018-09-30T04:44:16.774Z,99581.96
2018-09-30T04:46:45.334Z,99579.81
2018-09-30T04:49:13.859Z,99572.91
2018-09-30T04:51:42.409Z,99578.44
2018-09-30T04:54:10.952Z,99579.34
2018-09-30T04:56:39.525Z,99568.55
2018-09-30T04:59:08.060Z,99565.42
2018-09-30T05:01:36.701Z,99561.25
2018-09-30T05:04:05.225Z,99561.25
2018-09-30T05:06:33.788Z,99561.38
2018-09-30T05:09:02.372Z,99564.88
2018-09-30T05:11:30.935Z,99563.75
2018-09-30T05:13:59.542Z,99563.43
2018-09-30T05:16:28.196Z,99561.83
2018-09-30T05:18:56.689Z,99563.30
2018-09-30T05:21:25.240Z,99562.34
2018-09-30T05:23:53.787Z,99565.69
2018-09-30T05:26:22.391Z,99567.64
2018-09-30T05:28:50.931Z,99562.66
2018-09-30T05:31:19.535Z,99567.92
2018-09-30T05:33:48.054Z,99559.69
2018-09-30T05:36:16.615Z,99561.63
2018-09-30T05:38:45.148Z,99568.95
2018-09-30T05:41:13.684Z,99561.76
2018-09-30T05:43:42.547Z,99562.83
2018-09-30T05:46:11.081Z,99567.41
2018-09-30T05:48:39.642Z,99565.52
2018-09-30T05:51:08.168Z,99564.78
2018-09-30T05:53:36.772Z,99562.77
2018-09-30T05:56:05.308Z,99561.84
2018-09-30T05:58:33.864Z,99565.61
2018-09-30T06:01:02.385Z,99562.69
2018-09-30T06:03:30.955Z,99563.31
2018-09-30T06:05:59.496Z,99562.52
2018-09-30T06:08:28.061Z,99562.02
2018-09-30T06:10:56.611Z,99562.39
2018-09-30T06:13:25.169Z,99556.43
2018-09-30T06:15:53.764Z,99564.97
2018-09-30T06:18:22.263Z,99568.19
2018-09-30T06:20:50.771Z,99567.50
2018-09-30T06:23:19.330Z,99570.80
2018-09-30T06:25:47.853Z,99564.41
2018-09-30T06:28:16.398Z,99567.58
2018-09-30T06:30:44.920Z,99569.95
2018-09-30T06:33:13.472Z,99567.73
2018-09-30T06:35:42.500Z,99576.72
2018-09-30T06:38:11.131Z,99575.33
2018-09-30T06:40:39.665Z,99568.46
2018-09-30T06:43:08.220Z,99573.20
2018-09-30T06:45:36.744Z,99572.19
2018-09-30T06:48:05.291Z,99571.27
2018-09-30T06:50:34.109Z,99568.16
2018-09-30T06:53:02.996Z,99573.53
2018-09-30T06:55:31.503Z,99570.40
2018-09-30T06:58:00.143Z,99569.48
2018-09-30T07:00:28.662Z,99561.46
2018-09-30T07:02:57.185Z,99558.64
2018-09-30T07:05:25.788Z,99562.87
2018-09-30T07:07:54.470Z,99557.05
2018-09-30T07:10:23.046Z,99562.69
2018-09-30T07:12:51.568Z,99561.50
2018-09-30T07:15:20.184Z,99563.17
2018-09-30T07:17:48.720Z,99561.06
2018-09-30T07:20:17.290Z,99559.41
2018-09-30T07:22:45.838Z,99559.83
2018-09-30T07:25:14.397Z,99559.91
2018-09-30T07:27:42.913Z,99562.58
2018-09-30T07:30:11.470Z,99562.47
2018-09-30T07:32:39.996Z,99555.82
2018-09-30T07:35:08.666Z,99554.08
2018-09-30T07:37:37.203Z,99553.23
2018-09-30T07:40:05.821Z,99551.84
2018-09-30T07:42:34.353Z,99547.50
2018-09-30T07:45:02.913Z,99550.70
2018-09-30T07:47:31.529Z,99544.50
2018-09-30T07:50:00.103Z,99543.02
2018-09-30T07:52:28.677Z,99542.68
2018-09-30T07:54:57.233Z,99545.02
2018-09-30T07:57:25.770Z,99542.83
2018-09-30T07:59:54.320Z,99539.33
2018-09-30T08:02:22.845Z,99537.75
2018-09-30T08:04:51.401Z,99537.84
2018-09-30T08:07:19.917Z,99537.47
2018-09-30T08:09:48.489Z,99534.30
2018-09-30T08:12:18.413Z,99535.42
2018-09-30T08:14:47.016Z,99530.75
2018-09-30T08:17:15.542Z,99535.42
2018-09-30T08:19:44.098Z,99532.27
2018-09-30T08:22:12.612Z,99526.46
2018-09-30T08:24:41.142Z,99522.85
2018-09-30T08:27:10.441Z,99523.73
2018-09-30T08:29:38.996Z,99513.78
2018-09-30T08:32:07.500Z,99514.77
2018-09-30T08:34:36.052Z,99513.98
2018-09-30T08:37:04.549Z,99512.11
2018-09-30T08:39:33.116Z,99518.73
2018-09-30T08:42:01.629Z,99523.09
2018-09-30T08:44:30.456Z,99520.46
2018-09-30T08:46:59.005Z,99527.08
2018-09-30T08:49:27.553Z,99522.25
2018-09-30T08:51:56.081Z,99523.05
2018-09-30T08:54:24.601Z,99535.45
2018-09-30T08:56:53.157Z,99525.77
2018-09-30T08:59:21.689Z,99527.61
2018-09-30T09:01:50.254Z,99528.75
2018-09-30T09:04:18.772Z,99520.19
2018-09-30T09:06:47.335Z,99522.08
2018-09-30T09:09:15.860Z,99520.95
2018-09-30T09:11:44.429Z,99518.53
2018-09-30T09:14:13.010Z,99513.48
2018-09-30T09:16:41.616Z,99501.66
2018-09-30T09:19:10.149Z,99509.83
2018-09-30T09:21:38.946Z,99506.40
2018-09-30T09:24:07.507Z,99504.93
2018-09-30T09:26:36.062Z,99500.80
2018-09-30T09:29:04.608Z,99505.42
2018-09-30T09:31:33.201Z,99508.81
2018-09-30T09:34:01.753Z,99507.22
2018-09-30T09:36:33.951Z,99507.21
2018-09-30T09:39:05.062Z,99504.45
2018-09-30T09:41:33.629Z,99501.23
2018-09-30T09:44:02.161Z,99499.73
2018-09-30T09:46:34.281Z,99502.55
2018-09-30T09:49:06.681Z,99496.56
2018-09-30T09:51:37.455Z,99496.97
2018-09-30T09:54:12.416Z,99494.13
2018-09-30T09:56:42.765Z,99491.16
2018-09-30T09:59:11.363Z,99490.03
2018-09-30T10:01:40.142Z,99482.52
2018-09-30T10:04:11.344Z,99471.45
2018-09-30T10:06:40.087Z,99469.73
2018-09-30T10:09:08.764Z,99467.42
2018-09-30T10:11:41.437Z,99465.52
2018-09-30T10:14:11.559Z,99459.17
2018-09-30T10:16:46.342Z,99456.88
2018-09-30T10:19:18.724Z,99452.91
2018-09-30T10:21:48.981Z,99461.21
2018-09-30T10:24:18.721Z,99462.59
2018-09-30T10:26:47.677Z,99454.75
2018-09-30T10:29:20.168Z,99456.20
2018-09-30T10:31:48.728Z,99451.84
2018-09-30T10:34:18.708Z,99444.02
2018-09-30T10:36:47.857Z,99441.48
2018-09-30T10:39:16.501Z,99433.41
2018-09-30T10:41:45.448Z,99426.74
2018-09-30T10:44:15.197Z,99424.94
2018-09-30T10:46:44.365Z,99420.20
2018-09-30T10:49:14.017Z,99419.78
2018-09-30T10:51:42.585Z,99412.31
2018-09-30T10:54:11.355Z,99407.84
2018-09-30T10:56:40.155Z,99401.51
2018-09-30T10:59:10.214Z,99400.67
2018-09-30T11:01:39.628Z,99389.36
2018-09-30T11:04:12.602Z,99385.78
2018-09-30T11:06:47.101Z,99391.73
2018-09-30T11:09:16.303Z,99387.06
2018-09-30T11:11:46.378Z,99384.20
2018-09-30T11:14:16.666Z,99384.92
2018-09-30T11:16:46.614Z,99380.47
2018-09-30T11:19:15.269Z,99377.70
2018-09-30T11:21:45.125Z,99378.65
2018-09-30T11:24:14.562Z,99367.98
2018-09-30T11:26:43.986Z,99363.55
2018-09-30T11:29:13.954Z,99360.78
2018-09-30T11:31:43.645Z,99357.67
2018-09-30T11:34:19.099Z,99353.21
2018-09-30T11:36:49.316Z,99352.75
2018-09-30T11:39:20.018Z,99352.28
2018-09-30T11:41:48.525Z,99351.30
2018-09-30T11:44:17.788Z,99344.33
2018-09-30T11:46:50.969Z,99344.48
2018-09-30T11:49:23.626Z,99346.95
2018-09-30T11:51:59.499Z,99338.41
2018-09-30T11:54:31.643Z,99331.02
2018-09-30T11:57:00.744Z,99320.77
2018-09-30T11:59:29.272Z,99317.52
2018-09-30T12:01:58.005Z,99318.64
2018-09-30T12:04:27.670Z,99315.25
2018-09-30T12:06:56.288Z,99310.55
2018-09-30T12:09:24.848Z,99305.55
2018-09-30T12:11:53.360Z,99296.22
2018-09-30T12:14:21.949Z,99291.14
2018-09-30T12:16:50.485Z,99290.08
2018-09-30T12:19:19.049Z,99277.86
2018-09-30T12:21:47.577Z,99273.03
2018-09-30T12:24:16.153Z,99265.52
2018-09-30T12:26:44.689Z,99261.45
2018-09-30T12:29:13.293Z,99250.98
2018-09-30T12:31:41.839Z,99244.98
2018-09-30T12:34:10.401Z,99249.23
2018-09-30T12:36:38.926Z,99248.46
2018-09-30T12:39:09.193Z,99250.97
2018-09-30T12:41:37.710Z,99252.75
2018-09-30T12:44:06.404Z,99249.42
2018-09-30T12:46:34.933Z,99245.03
2018-09-30T12:49:03.543Z,99246.13
2018-09-30T12:51:32.057Z,99246.63
2018-09-30T12:54:00.621Z,99247.72
2018-09-30T12:56:29.194Z,99239.55
2018-09-30T12:58:57.788Z,99242.11
2018-09-30T13:01:26.325Z,99243.59
2018-09-30T13:03:54.885Z,99241.48
2018-09-30T13:06:23.403Z,99236.38
2018-09-30T13:08:51.952Z,99228.44
2018-09-30T13:11:20.473Z,99230.98
2018-09-30T13:13:49.056Z,99232.56
2018-09-30T13:16:17.613Z,99232.02
2018-09-30T13:18:46.161Z,99231.63
2018-09-30T13:21:14.689Z,99232.53
2018-09-30T13:23:43.314Z,99233.39
2018-09-30T13:26:11.840Z,99236.16
2018-09-30T13:28:40.389Z,99232.50
2018-09-30T13:31:08.950Z,99234.07
2018-09-30T13:33:37.539Z,99224.63
2018-09-30T13:36:06.062Z,99222.66
2018-09-30T13:38:35.639Z,99216.70
2018-09-30T13:41:04.477Z,99221.85
2018-09-30T13:43:36.927Z,99210.63
2018-09-30T13:46:05.621Z,99214.17
2018-09-30T13:48:34.456Z,99217.98
2018-09-30T13:51:03.992Z,99218.22
2018-09-30T13:53:32.536Z,99210.68
2018-09-30T13:56:01.156Z,99210.33
2018-09-30T13:58:29.762Z,99211.59
2018-09-30T14:00:58.305Z,99208.55
2018-09-30T14:03:26.842Z,99211.80
2018-09-30T14:05:55.412Z,99208.05
2018-09-30T14:08:23.949Z,99204.80
2018-09-30T14:10:52.551Z,99201.05
2018-09-30T14:13:21.084Z,99195.23
2018-09-30T14:15:49.661Z,99191.02
2018-09-30T14:18:18.176Z,99190.45
2018-09-30T14:20:46.735Z,99201.52
2018-09-30T14:23:15.665Z,99191.20
2018-09-30T14:25:44.231Z,99185.40
2018-09-30T14:28:12.748Z,99188.50
2018-09-30T14:30:41.284Z,99188.95
2018-09-30T14:33:09.800Z,99194.06
2018-09-30T14:35:38.357Z,99190.29
2018-09-30T14:38:07.364Z,99193.75
2018-09-30T14:40:36.273Z,99185.70
2018-09-30T14:43:11.284Z,99178.15
2018-09-30T14:45:39.850Z,99182.38
2018-09-30T14:48:08.395Z,99185.23
2018-09-30T14:50:36.952Z,99180.02
2018-09-30T14:53:05.473Z,99179.30
2018-09-30T14:55:34.018Z,99176.74
2018-09-30T14:58:02.605Z,99171.89
2018-09-30T15:00:31.230Z,99162.83
2018-09-30T15:02:59.753Z,99168.84
2018-09-30T15:05:28.304Z,99159.80
2018-09-30T15:08:28.373Z,99163.31
2018-09-30T15:11:14.280Z,99158.05
2018-09-30T15:16:22.652Z,99156.17
2018-09-30T15:18:51.448Z,99153.63
2018-09-30T15:21:19.989Z,99152.55
2018-09-30T15:23:48.506Z,99153.22
2018-09-30T15:26:17.053Z,99153.21
2018-09-30T15:28:45.574Z,99146.63
2018-09-30T15:31:14.213Z,99153.98
2018-09-30T15:33:42.745Z,99146.44
2018-09-30T15:36:11.301Z,99148.84
2018-09-30T15:38:39.864Z,99145.83
2018-09-30T15:41:08.410Z,99145.70
2018-09-30T15:43:36.924Z,99136.98
2018-09-30T15:46:05.493Z,99138.87
2018-09-30T15:48:34.002Z,99129.01
2018-09-30T15:51:02.953Z,99137.98
2018-09-30T15:53:31.496Z,99132.81
2018-09-30T15:56:00.128Z,99134.84
2018-09-30T15:58:29.000Z,99126.73
2018-09-30T16:00:57.545Z,99132.19
2018-09-30T16:03:26.061Z,99135.31
2018-09-30T16:05:54.789Z,99132.70
2018-09-30T16:08:23.379Z,99128.41
2018-09-30T16:10:56.348Z,99132.80
2018-09-30T16:13:27.908Z,99129.34
2018-09-30T16:15:59.703Z,99127.55
2018-09-30T16:18:30.387Z,99123.91
2018-09-30T16:21:00.101Z,99127.56
2018-09-30T16:23:30.056Z,99125.33
2018-09-30T16:25:59.403Z,99122.41
2018-09-30T16:28:30.074Z,99121.36
2018-09-30T16:30:59.341Z,99120.14
2018-09-30T16:33:29.688Z,99114.79
2018-09-30T16:35:59.754Z,99122.94
2018-09-30T16:38:30.824Z,99115.40
2018-09-30T16:41:00.093Z,99109.99
2018-09-30T16:43:28.842Z,99115.13
2018-09-30T16:45:57.541Z,99114.44
2018-09-30T16:48:26.303Z,99109.69
2018-09-30T16:50:54.964Z,99121.12
2018-09-30T16:53:23.537Z,99116.09
2018-09-30T16:55:52.064Z,99110.55
2018-09-30T16:58:20.635Z,99112.80
2018-09-30T17:00:49.164Z,99119.94
2018-09-30T17:03:17.729Z,99118.69
2018-09-30T17:05:46.251Z,99110.19
2018-09-30T17:08:14.800Z,99115.48
2018-09-30T17:10:43.312Z,99112.72
2018-09-30T17:13:11.942Z,99121.57
2018-09-30T17:15:47.513Z,99125.19
2018-09-30T17:18:22.856Z,99124.81
2018-09-30T17:20:58.171Z,99129.50
2018-09-30T17:23:27.054Z,99129.20
2018-09-30T17:25:56.280Z,99129.05
2018-09-30T17:28:24.805Z,99137.67
2018-09-30T17:30:53.305Z,99140.20
2018-09-30T17:33:21.834Z,99137.83
2018-09-30T17:35:50.336Z,99137.25
2018-09-30T17:38:18.866Z,99136.54
2018-09-30T17:40:47.360Z,99142.09
2018-09-30T17:43:15.954Z,99138.30
2018-09-30T17:45:44.916Z,99141.80
2018-09-30T17:48:13.477Z,99144.80
2018-09-30T17:50:42.071Z,99139.63
2018-09-30T17:53:10.684Z,99140.70
2018-09-30T17:55:39.188Z,99138.05
2018-09-30T17:58:10.875Z,99142.08
2018-09-30T18:00:39.575Z,99144.89
2018-09-30T18:03:08.124Z,99142.27
2018-09-30T18:05:36.721Z,99146.41
2018-09-30T18:08:05.411Z,99138.44
2018-09-30T18:10:34.529Z,99139.48
2018-09-30T18:13:03.454Z,99136.36
2018-09-30T18:15:50.357Z,99137.89
2018-09-30T18:18:28.888Z,99141.64
2018-09-30T18:20:58.870Z,99148.32
2018-09-30T18:23:31.745Z,99137.92
2018-09-30T18:26:00.774Z,99144.34
2018-09-30T18:28:32.269Z,99138.35
2018-09-30T18:31:06.214Z,99149.59
2018-09-30T18:33:34.893Z,99151.72
2018-09-30T18:36:03.438Z,99141.48
2018-09-30T18:38:32.040Z,99140.33
2018-09-30T18:41:00.587Z,99139.98
2018-09-30T18:43:30.321Z,99145.77
2018-09-30T18:46:05.516Z,99140.37
2018-09-30T18:48:36.461Z,99139.27
2018-09-30T18:51:08.929Z,99136.57
2018-09-30T18:53:37.598Z,99133.56
2018-09-30T18:56:06.279Z,99139.02
2018-09-30T18:58:34.772Z,99139.18
2018-09-30T19:01:03.303Z,99143.62
2018-09-30T19:03:31.901Z,99143.55
2018-09-30T19:06:00.689Z,99136.26
2018-09-30T19:08:31.548Z,99132.03
2018-09-30T19:11:02.569Z,99140.69
2018-09-30T19:13:33.795Z,99134.86
2018-09-30T19:16:02.577Z,99138.75
2018-09-30T19:18:31.200Z,99143.31
2018-09-30T19:20:59.829Z,99140.50
2018-09-30T19:23:28.549Z,99140.70
2018-09-30T19:25:57.182Z,99138.46
2018-09-30T19:28:32.233Z,99141.03
2018-09-30T19:31:00.912Z,99142.36
2018-09-30T19:33:29.486Z,99133.16
2018-09-30T19:35:58.021Z,99135.35
2018-09-30T19:38:26.720Z,99137.14
2018-09-30T19:40:55.306Z,99137.02
2018-09-30T19:43:23.906Z,99137.39
2018-09-30T19:45:52.930Z,99136.19
2018-09-30T19:48:21.470Z,99141.06
2018-09-30T19:50:50.062Z,99136.59
2018-09-30T19:53:18.729Z,99139.96
2018-09-30T19:55:47.317Z,99132.13
2018-09-30T19:58:18.460Z,99135.94
2018-09-30T20:00:47.295Z,99132.58
2018-09-30T20:03:15.832Z,99137.47
2018-09-30T20:05:44.393Z,99129.75
2018-09-30T20:08:15.177Z,99133.20
2018-09-30T20:10:46.523Z,99130.66
2018-09-30T20:13:16.363Z,99136.91
2018-09-30T20:15:45.740Z,99133.94
2018-09-30T20:18:14.808Z,99134.07
2018-09-30T20:20:43.953Z,99138.84
2018-09-30T20:23:14.884Z,99130.58
2018-09-30T20:25:44.359Z,99130.82
2018-09-30T20:28:13.820Z,99131.69
2018-09-30T20:30:44.142Z,99134.19
2018-09-30T20:33:13.519Z,99135.50
2018-09-30T20:35:43.279Z,99137.55
2018-09-30T20:38:13.091Z,99138.39
2018-09-30T20:40:42.915Z,99141.23
2018-09-30T20:43:12.592Z,99136.92
2018-09-30T20:45:41.226Z,99137.71
2018-09-30T20:48:09.997Z,99136.19
2018-09-30T20:50:40.180Z,99148.75
2018-09-30T20:53:10.403Z,99145.01
2018-09-30T20:55:40.917Z,99147.53
2018-09-30T20:58:11.334Z,99149.47
2018-09-30T21:00:39.941Z,99148.13
2018-09-30T21:03:10.072Z,99152.00
2018-09-30T21:08:57.177Z,99155.46
2018-09-30T21:11:27.504Z,99165.27
2018-09-30T21:13:56.388Z,99166.37
2018-09-30T21:16:27.515Z,99159.86
2018-09-30T21:19:02.366Z,99157.92
2018-09-30T21:21:39.279Z,99155.60
2018-09-30T21:24:13.151Z,99156.28
2018-09-30T21:26:47.095Z,99160.59
2018-09-30T21:29:16.313Z,99162.63
2018-09-30T21:31:48.157Z,99150.95
2018-09-30T21:34:16.743Z,99159.40
2018-09-30T21:36:46.717Z,99158.88
2018-09-30T21:39:15.770Z,99164.42
2018-09-30T21:41:44.570Z,99171.77
2018-09-30T21:44:13.299Z,99160.14
2018-09-30T21:46:42.962Z,99156.83
2018-09-30T21:49:12.145Z,99164.69
2018-09-30T21:51:41.276Z,99164.56
2018-09-30T21:54:10.657Z,99156.41
2018-09-30T21:56:40.393Z,99167.88
2018-09-30T21:59:09.302Z,99165.47
2018-09-30T22:01:38.310Z,99168.70
2018-09-30T22:04:07.840Z,99176.05
2018-09-30T22:06:37.589Z,99170.97
2018-09-30T22:09:07.294Z,99171.25
2018-09-30T22:11:35.956Z,99164.67
2018-09-30T22:14:05.064Z,99171.38
2018-09-30T22:16:35.876Z,99173.06
2018-09-30T22:19:14.353Z,99178.94
2018-09-30T22:21:42.947Z,99171.61
2018-09-30T22:24:11.468Z,99174.25
2018-09-30T22:26:55.671Z,99169.67
2018-09-30T22:29:25.119Z,99178.10
2018-09-30T22:31:53.692Z,99184.35
2018-09-30T22:34:22.383Z,99185.37
2018-09-30T22:36:50.993Z,99181.00
2018-09-30T22:39:19.842Z,99182.31
2018-09-30T22:41:49.456Z,99182.22
2018-09-30T22:44:18.988Z,99180.81
2018-09-30T22:46:48.086Z,99179.02
2018-09-30T22:49:16.725Z,99178.91
2018-09-30T22:51:45.296Z,99179.65
2018-09-30T22:54:15.589Z,99169.08
2018-09-30T22:56:45.057Z,99169.08
2018-09-30T22:59:13.626Z,99166.25
2018-09-30T23:01:42.181Z,99167.36
2018-09-30T23:04:10.693Z,99168.73
2018-09-30T23:06:39.297Z,99169.34
2018-09-30T23:09:09.764Z,99172.98
2018-09-30T23:11:39.100Z,99173.05
2018-09-30T23:14:08.596Z,99174.06
2018-09-30T23:16:37.152Z,99166.47
2018-09-30T23:19:05.682Z,99169.81
2018-09-30T23:21:34.237Z,99174.53
2018-09-30T23:24:02.745Z,99170.37
2018-09-30T23:26:31.292Z,99173.98
2018-09-30T23:29:00.029Z,99164.87
2018-09-30T23:31:29.796Z,99167.00
2018-09-30T23:33:58.297Z,99169.79
2018-09-30T23:36:26.804Z,99167.59
2018-09-30T23:38:55.344Z,99164.13
2018-09-30T23:41:23.861Z,99171.04
2018-09-30T23:43:52.425Z,99170.14
2018-09-30T23:46:20.977Z,99177.92
2018-09-30T23:48:49.840Z,99177.06
2018-09-30T23:51:21.208Z,99181.38
2018-09-30T23:53:49.757Z,99186.21
2018-09-30T23:56:18.283Z,99181.79
2018-09-30T23:58:46.838Z,99188.34
